createdAt,value
2019-02-05T00:01:46.258Z,3.63
2019-02-05T00:04:15.256Z,3.62
2019-02-05T00:06:44.235Z,3.60
2019-02-05T00:09:13.723Z,3.57
2019-02-05T00:11:42.693Z,3.57
2019-02-05T00:14:11.701Z,3.60
2019-02-05T00:16:41.089Z,3.65
2019-02-05T00:19:10.104Z,3.65
2019-02-05T00:21:39.064Z,3.72
2019-02-05T00:24:08.052Z,3.73
2019-02-05T00:26:37.054Z,3.73
2019-02-05T00:29:06.196Z,3.76
2019-02-05T00:31:35.637Z,3.74
2019-02-05T00:34:04.726Z,3.73
2019-02-05T00:36:33.782Z,3.73
2019-02-05T00:39:04.358Z,3.76
2019-02-05T00:41:33.374Z,3.75
2019-02-05T00:44:02.378Z,2.82
2019-02-05T00:46:31.614Z,3.69
2019-02-05T00:49:00.588Z,3.69
2019-02-05T00:51:29.570Z,3.71
2019-02-05T00:53:58.539Z,3.72
2019-02-05T00:56:27.627Z,3.73
2019-02-05T00:58:56.614Z,3.72
2019-02-05T01:01:26.095Z,3.75
2019-02-05T01:03:55.067Z,3.73
2019-02-05T01:06:24.037Z,3.71
2019-02-05T01:08:52.999Z,3.70
2019-02-05T01:11:22.008Z,3.67
2019-02-05T01:13:50.981Z,3.69
2019-02-05T01:16:20.385Z,3.68
2019-02-05T01:18:49.381Z,3.67
2019-02-05T01:21:18.403Z,3.66
2019-02-05T01:23:47.362Z,3.63
2019-02-05T01:26:16.343Z,3.64
2019-02-05T01:28:45.340Z,3.62
2019-02-05T01:31:14.689Z,3.62
2019-02-05T01:33:43.653Z,3.63
2019-02-05T01:36:12.692Z,3.62
2019-02-05T01:38:41.656Z,3.62
2019-02-05T01:41:10.706Z,3.59
2019-02-05T01:43:39.696Z,3.61
2019-02-05T01:46:09.156Z,3.59
2019-02-05T01:48:38.126Z,3.61
2019-02-05T01:51:07.124Z,3.60
2019-02-05T01:53:36.127Z,3.60
2019-02-05T01:56:05.124Z,3.61
2019-02-05T01:58:34.088Z,3.61
2019-02-05T02:01:05.190Z,3.62
2019-02-05T02:03:34.245Z,3.62
2019-02-05T02:06:03.232Z,3.61
2019-02-05T02:08:32.350Z,3.60
2019-02-05T02:11:01.299Z,3.57
2019-02-05T02:13:30.276Z,3.57
2019-02-05T02:15:59.307Z,3.55
2019-02-05T02:18:28.363Z,3.59
2019-02-05T02:20:57.358Z,3.55
2019-02-05T02:23:26.385Z,3.58
2019-02-05T02:25:55.967Z,3.56
2019-02-05T02:28:24.921Z,3.53
2019-02-05T02:30:53.990Z,3.55
2019-02-05T02:33:22.961Z,3.55
2019-02-05T02:35:51.935Z,3.55
2019-02-05T02:38:20.900Z,3.55
2019-02-05T02:40:49.882Z,3.55
2019-02-05T02:43:18.852Z,3.54
2019-02-05T02:45:47.844Z,3.54
2019-02-05T02:48:16.838Z,3.50
2019-02-05T02:50:45.816Z,3.47
2019-02-05T02:53:14.796Z,3.43
2019-02-05T02:55:43.765Z,3.44
2019-02-05T02:58:13.658Z,3.38
2019-02-05T03:00:42.867Z,3.35
2019-02-05T03:03:12.024Z,3.33
2019-02-05T03:05:41.090Z,3.31
2019-02-05T03:08:10.073Z,3.30
2019-02-05T03:10:39.068Z,3.30
2019-02-05T03:13:08.062Z,3.25
2019-02-05T03:15:37.075Z,3.19
2019-02-05T03:18:06.073Z,3.17
2019-02-05T03:20:35.333Z,3.16
2019-02-05T03:23:04.323Z,3.17
2019-02-05T03:25:33.291Z,3.15
2019-02-05T03:28:02.289Z,3.19
2019-02-05T03:30:31.280Z,3.16
2019-02-05T03:33:00.297Z,3.14
2019-02-05T03:35:29.293Z,3.14
2019-02-05T03:37:58.533Z,3.14
2019-02-05T03:41:06.236Z,3.10
2019-02-05T03:43:38.922Z,3.08
2019-02-05T03:46:09.942Z,3.09
2019-02-05T03:48:39.241Z,3.08
2019-02-05T03:51:41.503Z,3.10
2019-02-05T03:54:58.325Z,3.13
2019-02-05T03:58:02.884Z,3.11
2019-02-05T04:00:46.374Z,3.10
2019-02-05T04:03:48.326Z,3.13
2019-02-05T04:06:54.074Z,3.11
2019-02-05T04:09:27.809Z,3.16
2019-02-05T04:12:29.974Z,3.12
2019-02-05T04:15:30.630Z,3.07
2019-02-05T04:18:36.050Z,3.01
2019-02-05T04:21:46.327Z,3.08
2019-02-05T04:24:45.419Z,3.06
2019-02-05T04:27:52.793Z,3.03
2019-02-05T04:30:52.093Z,3.03
2019-02-05T04:33:28.125Z,3.03
2019-02-05T04:36:32.547Z,3.03
2019-02-05T04:39:32.387Z,3.05
2019-02-05T04:42:47.709Z,3.05
2019-02-05T04:45:52.375Z,3.06
2019-02-05T04:48:43.565Z,3.03
2019-02-05T04:51:50.284Z,3.04
2019-02-05T04:55:08.578Z,3.03
2019-02-05T04:58:16.088Z,3.01
2019-02-05T05:01:17.702Z,3.01
2019-02-05T05:04:13.350Z,3.00
2019-02-05T05:07:25.048Z,3.02
2019-02-05T05:10:02.966Z,3.06
2019-02-05T05:12:32.032Z,3.07
2019-02-05T05:15:01.174Z,3.07
2019-02-05T05:17:30.180Z,3.07
2019-02-05T05:19:59.169Z,3.06
2019-02-05T05:22:28.171Z,3.08
2019-02-05T05:24:57.141Z,3.11
2019-02-05T05:27:26.397Z,3.11
2019-02-05T05:29:55.476Z,3.09
2019-02-05T05:32:24.467Z,3.08
2019-02-05T05:34:53.455Z,3.08
2019-02-05T05:37:22.440Z,3.10
2019-02-05T05:39:51.424Z,3.10
2019-02-05T05:42:20.429Z,3.11
2019-02-05T05:44:49.391Z,3.09
2019-02-05T05:47:18.377Z,3.11
2019-02-05T05:49:47.374Z,3.11
2019-02-05T05:52:16.351Z,3.11
2019-02-05T05:54:45.319Z,3.11
2019-02-05T05:57:14.313Z,3.09
2019-02-05T05:59:43.319Z,3.10
2019-02-05T06:02:12.338Z,3.13
2019-02-05T06:04:41.324Z,3.15
2019-02-05T06:07:10.324Z,3.14
2019-02-05T06:09:39.344Z,3.08
2019-02-05T06:12:08.525Z,3.13
2019-02-05T06:14:37.594Z,3.12
2019-02-05T06:17:11.544Z,3.13
2019-02-05T06:19:40.550Z,3.11
2019-02-05T06:22:09.600Z,3.10
2019-02-05T06:24:38.647Z,3.10
2019-02-05T06:27:07.702Z,3.13
2019-02-05T06:29:36.709Z,3.11
2019-02-05T06:32:06.009Z,3.13
2019-02-05T06:34:35.063Z,3.13
2019-02-05T06:37:04.071Z,3.13
2019-02-05T06:39:33.047Z,3.13
2019-02-05T06:42:02.028Z,3.14
2019-02-05T06:44:31.034Z,3.14
2019-02-05T06:47:00.002Z,3.15
2019-02-05T06:49:29.198Z,3.14
2019-02-05T06:51:58.168Z,3.16
2019-02-05T06:54:27.186Z,3.16
2019-02-05T06:56:56.157Z,3.16
2019-02-05T06:59:25.145Z,3.16
2019-02-05T07:01:54.158Z,3.15
2019-02-05T07:04:24.892Z,3.18
2019-02-05T07:06:53.979Z,3.17
2019-02-05T07:09:23.012Z,3.21
2019-02-05T07:11:52.051Z,3.19
2019-02-05T07:14:21.077Z,3.19
2019-02-05T07:16:50.169Z,3.19
2019-02-05T07:19:19.206Z,3.20
2019-02-05T07:21:48.452Z,3.19
2019-02-05T07:24:17.464Z,3.22
2019-02-05T07:26:46.469Z,3.22
2019-02-05T07:29:15.535Z,3.23
2019-02-05T07:31:44.543Z,3.21
2019-02-05T07:34:13.569Z,3.20
2019-02-05T07:36:42.579Z,3.22
2019-02-05T07:39:11.745Z,3.22
2019-02-05T07:41:40.827Z,3.23
2019-02-05T07:44:09.839Z,3.24
2019-02-05T07:46:38.947Z,3.24
2019-02-05T07:49:07.958Z,3.23
2019-02-05T07:51:36.948Z,3.24
2019-02-05T07:54:05.994Z,3.34
2019-02-05T07:56:35.474Z,3.26
2019-02-05T07:59:10.419Z,3.25
2019-02-05T08:01:35.250Z,3.21
2019-02-05T08:04:04.276Z,3.20
2019-02-05T08:06:33.321Z,3.17
2019-02-05T08:09:02.400Z,3.18
2019-02-05T08:11:31.446Z,3.20
2019-02-05T08:14:00.702Z,3.21
2019-02-05T08:16:29.701Z,3.22
2019-02-05T08:18:58.735Z,2.79
2019-02-05T08:21:27.727Z,3.26
2019-02-05T08:23:56.761Z,3.27
2019-02-05T08:26:25.803Z,3.29
2019-02-05T08:28:54.926Z,3.31
2019-02-05T08:31:23.943Z,3.34
2019-02-05T08:33:52.970Z,3.37
2019-02-05T08:36:21.977Z,3.32
2019-02-05T08:38:51.020Z,3.31
2019-02-05T08:41:20.081Z,3.34
2019-02-05T08:43:49.076Z,3.34
2019-02-05T08:46:18.108Z,3.38
2019-02-05T08:48:47.123Z,3.35
2019-02-05T08:51:16.161Z,3.36
2019-02-05T08:53:45.187Z,3.39
2019-02-05T08:56:14.263Z,3.37
2019-02-05T08:58:43.285Z,3.39
2019-02-05T09:01:14.464Z,3.38
2019-02-05T09:03:43.054Z,3.42
2019-02-05T09:06:12.159Z,3.45
2019-02-05T09:08:41.170Z,3.45
2019-02-05T09:11:10.314Z,3.48
2019-02-05T09:13:39.331Z,3.48
2019-02-05T09:16:08.354Z,3.49
2019-02-05T09:18:37.394Z,3.49
2019-02-05T09:21:06.411Z,3.50
2019-02-05T09:23:35.883Z,3.49
2019-02-05T09:26:04.957Z,3.53
2019-02-05T09:28:34.001Z,3.58
2019-02-05T09:31:03.049Z,3.58
2019-02-05T09:33:32.111Z,3.60
2019-02-05T09:36:01.156Z,3.61
2019-02-05T09:38:30.151Z,3.60
2019-02-05T09:40:59.546Z,3.60
2019-02-05T09:43:28.570Z,3.63
2019-02-05T09:45:57.605Z,3.67
2019-02-05T09:48:26.608Z,3.68
2019-02-05T09:50:55.646Z,3.70
2019-02-05T09:53:24.645Z,3.68
2019-02-05T09:55:53.693Z,3.69
2019-02-05T09:58:22.908Z,3.68
2019-02-05T10:00:51.922Z,3.68
2019-02-05T10:03:20.986Z,3.68
2019-02-05T10:05:49.992Z,3.69
2019-02-05T10:08:19.035Z,3.68
2019-02-05T10:10:48.092Z,3.70
2019-02-05T10:13:17.136Z,3.73
2019-02-05T10:15:46.180Z,3.77
2019-02-05T10:18:15.234Z,3.77
2019-02-05T10:20:44.241Z,3.79
2019-02-05T10:23:13.318Z,3.75
2019-02-05T10:25:42.343Z,3.78
2019-02-05T10:28:11.407Z,3.81
2019-02-05T10:30:42.553Z,3.81
2019-02-05T10:33:11.759Z,3.85
2019-02-05T10:35:40.916Z,3.84
2019-02-05T10:38:09.929Z,3.84
2019-02-05T10:40:38.933Z,3.83
2019-02-05T10:43:08.384Z,3.85
2019-02-05T10:45:37.591Z,3.85
2019-02-05T10:48:08.512Z,3.88
2019-02-05T10:50:37.551Z,3.87
2019-02-05T10:53:06.575Z,3.89
2019-02-05T10:55:35.579Z,3.92
2019-02-05T10:58:04.964Z,3.94
2019-02-05T11:00:34.034Z,3.91
2019-02-05T11:03:03.603Z,3.91
2019-02-05T11:05:32.710Z,3.91
2019-02-05T11:08:01.794Z,3.94
2019-02-05T11:10:30.808Z,3.96
2019-02-05T11:12:59.840Z,3.98
2019-02-05T11:15:30.664Z,3.98
2019-02-05T11:17:59.839Z,4.03
2019-02-05T11:20:29.247Z,4.03
2019-02-05T11:22:58.340Z,4.06
2019-02-05T11:25:27.368Z,4.10
2019-02-05T11:27:56.414Z,4.07
2019-02-05T11:30:50.570Z,4.10
2019-02-05T11:33:19.643Z,4.09
2019-02-05T11:35:48.666Z,4.06
2019-02-05T11:38:17.684Z,4.02
2019-02-05T11:40:46.716Z,4.03
2019-02-05T11:43:15.785Z,4.03
2019-02-05T11:45:44.822Z,3.99
2019-02-05T11:48:16.668Z,4.03
2019-02-05T11:50:45.786Z,4.06
2019-02-05T11:53:14.879Z,4.11
2019-02-05T11:55:43.988Z,4.13
2019-02-05T11:58:13.517Z,4.17
2019-02-05T12:00:50.562Z,4.13
2019-02-05T12:03:19.868Z,4.15
2019-02-05T12:05:48.938Z,4.18
2019-02-05T12:08:18.753Z,4.19
2019-02-05T12:10:47.793Z,4.19
2019-02-05T12:13:16.844Z,4.21
2019-02-05T12:15:45.892Z,4.23
2019-02-05T12:18:14.973Z,4.24
2019-02-05T12:20:44.156Z,4.25
2019-02-05T12:23:13.222Z,4.25
2019-02-05T12:25:42.291Z,4.27
2019-02-05T12:28:11.348Z,4.25
2019-02-05T12:30:45.216Z,4.25
2019-02-05T12:33:11.188Z,4.18
2019-02-05T12:35:40.250Z,4.16
2019-02-05T12:38:09.335Z,4.13
2019-02-05T12:40:38.416Z,4.14
2019-02-05T12:43:07.434Z,4.13
2019-02-05T12:45:36.475Z,4.17
2019-02-05T12:48:05.491Z,4.13
2019-02-05T12:50:35.525Z,4.13
2019-02-05T12:53:04.857Z,4.12
2019-02-05T12:55:34.053Z,4.11
2019-02-05T12:58:03.077Z,4.12
2019-02-05T13:00:34.455Z,4.12
2019-02-05T13:03:03.523Z,4.12
2019-02-05T13:05:32.547Z,4.12
2019-02-05T13:08:05.204Z,4.14
2019-02-05T13:10:35.075Z,4.18
2019-02-05T13:13:04.130Z,4.18
2019-02-05T13:15:33.204Z,4.23
2019-02-05T13:18:02.255Z,4.22
2019-02-05T13:20:31.323Z,4.22
2019-02-05T13:23:00.652Z,4.26
2019-02-05T13:25:30.234Z,4.25
2019-02-05T13:27:59.364Z,4.27
2019-02-05T13:30:30.429Z,4.30
2019-02-05T13:32:59.464Z,4.32
2019-02-05T13:35:28.510Z,4.35
2019-02-05T13:37:57.557Z,4.36
2019-02-05T13:40:26.842Z,4.38
2019-02-05T13:42:55.962Z,4.37
2019-02-05T13:45:26.969Z,4.38
2019-02-05T13:47:55.991Z,4.34
2019-02-05T13:50:32.959Z,4.32
2019-02-05T13:52:57.830Z,4.30
2019-02-05T13:55:32.119Z,4.28
2019-02-05T13:58:01.342Z,4.30
2019-02-05T14:00:41.276Z,4.34
2019-02-05T14:03:10.947Z,4.35
2019-02-05T14:05:40.048Z,4.36
2019-02-05T14:08:09.134Z,4.39
2019-02-05T14:10:38.319Z,4.44
2019-02-05T14:13:07.702Z,4.20
2019-02-05T14:15:38.230Z,4.41
2019-02-05T14:18:08.024Z,4.42
2019-02-05T14:20:37.089Z,4.44
2019-02-05T14:23:06.143Z,4.41
2019-02-05T14:25:35.352Z,4.44
2019-02-05T14:28:04.527Z,4.42
2019-02-05T14:30:39.092Z,4.43
2019-02-05T14:33:08.150Z,4.43
2019-02-05T14:35:37.174Z,4.43
2019-02-05T14:38:07.694Z,4.45
2019-02-05T14:40:36.692Z,4.43
2019-02-05T14:43:06.512Z,4.43
2019-02-05T14:45:35.580Z,4.43
2019-02-05T14:48:05.319Z,4.45
2019-02-05T14:50:34.380Z,4.46
2019-02-05T14:53:03.464Z,4.46
2019-02-05T14:55:32.629Z,4.48
2019-02-05T14:58:01.722Z,4.46
2019-02-05T15:00:32.433Z,4.41
2019-02-05T15:03:02.318Z,4.41
2019-02-05T15:05:31.468Z,4.42
2019-02-05T15:08:00.637Z,4.42
2019-02-05T15:10:29.663Z,4.40
2019-02-05T15:12:58.707Z,4.41
2019-02-05T15:15:27.869Z,4.39
2019-02-05T15:17:57.107Z,4.38
2019-02-05T15:20:31.523Z,4.35
2019-02-05T15:23:00.682Z,4.35
2019-02-05T15:25:29.695Z,4.34
2019-02-05T15:27:58.927Z,4.31
2019-02-05T15:30:31.147Z,4.30
2019-02-05T15:33:25.415Z,4.31
2019-02-05T15:35:57.779Z,4.26
2019-02-05T15:38:27.276Z,4.20
2019-02-05T15:40:56.319Z,4.21
2019-02-05T15:43:25.368Z,4.19
2019-02-05T15:45:54.626Z,4.18
2019-02-05T15:48:23.660Z,4.17
2019-02-05T15:50:52.701Z,4.20
2019-02-05T15:53:22.285Z,4.20
2019-02-05T15:55:51.404Z,4.22
2019-02-05T15:58:28.158Z,4.19
2019-02-05T16:00:57.252Z,4.18
2019-02-05T16:03:26.397Z,4.18
2019-02-05T16:05:55.511Z,4.16
2019-02-05T16:08:25.399Z,4.13
2019-02-05T16:10:54.508Z,3.68
2019-02-05T16:13:23.553Z,4.12
2019-02-05T16:15:52.581Z,4.14
2019-02-05T16:18:21.742Z,4.11
2019-02-05T16:20:50.913Z,4.07
2019-02-05T16:23:20.282Z,4.06
2019-02-05T16:25:49.319Z,4.09
2019-02-05T16:28:18.618Z,4.08
2019-02-05T16:30:47.626Z,4.10
2019-02-05T16:33:16.684Z,4.09
2019-02-05T16:35:45.878Z,4.08
2019-02-05T16:38:15.358Z,4.09
2019-02-05T16:40:45.392Z,4.08
2019-02-05T16:43:14.453Z,4.05
2019-02-05T16:45:43.493Z,4.05
2019-02-05T16:48:12.670Z,4.04
2019-02-05T16:50:43.885Z,4.05
2019-02-05T16:53:13.179Z,4.03
2019-02-05T16:55:42.232Z,4.04
2019-02-05T16:58:11.250Z,4.05
2019-02-05T17:00:40.315Z,4.06
2019-02-05T17:03:09.416Z,4.06
2019-02-05T17:05:39.465Z,4.06
2019-02-05T17:08:09.024Z,4.05
2019-02-05T17:10:38.091Z,4.04
2019-02-05T17:13:07.232Z,4.00
2019-02-05T17:15:36.273Z,4.00
2019-02-05T17:18:05.419Z,4.01
2019-02-05T17:20:34.469Z,4.02
2019-02-05T17:23:04.271Z,4.02
2019-02-05T17:25:35.781Z,4.04
2019-02-05T17:28:04.196Z,4.05
2019-02-05T17:30:35.249Z,4.04
2019-02-05T17:33:04.301Z,4.03
2019-02-05T17:35:35.387Z,4.00
2019-02-05T17:38:04.169Z,3.97
2019-02-05T17:40:33.390Z,3.93
2019-02-05T17:43:02.509Z,3.96
2019-02-05T17:45:33.494Z,3.98
2019-02-05T17:48:04.391Z,3.99
2019-02-05T17:50:33.632Z,3.99
2019-02-05T17:53:02.978Z,3.99
2019-02-05T17:55:32.006Z,3.98
2019-02-05T17:58:01.044Z,3.97
2019-02-05T18:00:38.538Z,3.98
2019-02-05T18:03:07.697Z,3.99
2019-02-05T18:05:37.896Z,3.98
2019-02-05T18:08:06.960Z,3.53
2019-02-05T18:10:36.143Z,3.98
2019-02-05T18:13:05.681Z,3.98
2019-02-05T18:15:34.927Z,3.96
2019-02-05T18:18:04.000Z,3.96
2019-02-05T18:20:33.809Z,3.95
2019-02-05T18:23:03.544Z,3.94
2019-02-05T18:25:33.084Z,3.95
2019-02-05T18:28:03.315Z,3.95
2019-02-05T18:30:33.475Z,3.93
2019-02-05T18:33:05.637Z,3.93
2019-02-05T18:35:33.897Z,3.94
2019-02-05T18:38:12.942Z,3.95
2019-02-05T18:40:42.068Z,3.94
2019-02-05T18:43:11.548Z,3.96
2019-02-05T18:45:40.957Z,3.95
2019-02-05T18:48:10.803Z,3.96
2019-02-05T18:50:40.339Z,3.96
2019-02-05T18:53:11.665Z,3.94
2019-02-05T18:55:40.823Z,3.94
2019-02-05T18:58:10.337Z,3.94
2019-02-05T19:00:41.214Z,3.92
2019-02-05T19:03:15.372Z,3.92
2019-02-05T19:05:41.456Z,3.92
2019-02-05T19:08:11.009Z,3.91
2019-02-05T19:10:40.376Z,3.91
2019-02-05T19:13:10.454Z,3.90
2019-02-05T19:15:39.946Z,3.89
2019-02-05T19:18:09.423Z,3.88
2019-02-05T19:20:38.757Z,2.98
2019-02-05T19:23:09.146Z,3.87
2019-02-05T19:26:00.423Z,3.88
2019-02-05T19:28:32.112Z,3.88
2019-02-05T19:31:20.164Z,3.87
2019-02-05T19:33:49.337Z,3.88
2019-02-05T19:36:18.597Z,3.86
2019-02-05T19:38:48.315Z,3.86
2019-02-05T19:41:17.520Z,3.85
2019-02-05T19:43:46.875Z,3.84
2019-02-05T19:46:34.154Z,3.83
2019-02-05T19:49:21.149Z,3.82
2019-02-05T19:51:40.956Z,3.79
2019-02-05T19:54:11.096Z,3.79
2019-02-05T19:56:40.491Z,3.78
2019-02-05T19:59:10.022Z,3.75
2019-02-05T20:01:40.248Z,3.75
2019-02-05T20:04:09.668Z,3.73
2019-02-05T20:06:45.002Z,3.72
2019-02-05T20:09:15.645Z,3.74
2019-02-05T20:11:45.199Z,3.75
2019-02-05T20:14:14.810Z,3.75
2019-02-05T20:16:44.441Z,3.75
2019-02-05T20:19:13.739Z,3.74
2019-02-05T20:21:43.551Z,3.76
2019-02-05T20:24:12.930Z,3.76
2019-02-05T20:26:42.752Z,3.75
2019-02-05T20:29:12.320Z,3.74
2019-02-05T20:31:41.645Z,3.72
2019-02-05T20:34:17.068Z,3.70
2019-02-05T20:36:46.475Z,3.68
2019-02-05T20:39:17.739Z,3.66
2019-02-05T20:41:46.888Z,3.68
2019-02-05T20:44:16.212Z,3.69
2019-02-05T20:46:45.769Z,3.70
2019-02-05T20:49:15.045Z,3.71
2019-02-05T20:51:44.497Z,3.71
2019-02-05T20:54:13.916Z,3.71
2019-02-05T20:56:43.569Z,3.70
2019-02-05T20:59:12.695Z,3.70
2019-02-05T21:01:42.074Z,3.67
2019-02-05T21:04:11.197Z,3.66
2019-02-05T21:06:40.409Z,3.67
2019-02-05T21:09:16.674Z,3.66
2019-02-05T21:11:45.747Z,3.66
2019-02-05T21:14:14.842Z,3.66
2019-02-05T21:16:43.928Z,3.66
2019-02-05T21:19:13.005Z,3.65
2019-02-05T21:21:42.122Z,3.62
2019-02-05T21:24:11.546Z,3.63
2019-02-05T21:26:40.574Z,3.62
2019-02-05T21:29:09.702Z,3.63
2019-02-05T21:31:38.784Z,3.63
2019-02-05T21:34:15.162Z,3.63
2019-02-05T21:36:38.553Z,3.63
2019-02-05T21:39:10.606Z,3.61
2019-02-05T21:41:39.650Z,3.60
2019-02-05T21:44:08.680Z,3.58
2019-02-05T21:46:37.760Z,3.56
2019-02-05T21:49:06.862Z,3.56
2019-02-05T21:51:40.543Z,3.56
2019-02-05T21:54:06.707Z,3.56
2019-02-05T21:56:35.763Z,3.56
2019-02-05T21:59:04.872Z,3.53
2019-02-05T22:01:34.018Z,3.52
2019-02-05T22:04:03.128Z,3.51
2019-02-05T22:06:32.199Z,3.51
2019-02-05T22:09:01.223Z,3.50
2019-02-05T22:11:30.661Z,3.50
2019-02-05T22:13:59.708Z,3.48
2019-02-05T22:16:28.714Z,3.46
2019-02-05T22:18:57.737Z,3.44
2019-02-05T22:21:26.754Z,3.44
2019-02-05T22:23:55.822Z,3.44
2019-02-05T22:26:24.850Z,3.44
2019-02-05T22:28:54.244Z,3.43
2019-02-05T22:31:23.272Z,3.42
2019-02-05T22:33:52.428Z,3.40
2019-02-05T22:36:21.452Z,3.37
2019-02-05T22:38:50.466Z,3.36
2019-02-05T22:41:19.870Z,3.34
2019-02-05T22:43:48.865Z,3.31
2019-02-05T22:46:17.925Z,3.27
2019-02-05T22:48:46.916Z,3.26
2019-02-05T22:51:15.968Z,3.23
2019-02-05T22:53:44.991Z,3.22
2019-02-05T22:56:14.022Z,3.18
2019-02-05T22:58:43.459Z,3.13
2019-02-05T23:01:34.665Z,3.07
2019-02-05T23:04:50.876Z,3.00
2019-02-05T23:07:23.295Z,2.92
2019-02-05T23:10:38.721Z,2.84
2019-02-05T23:13:13.141Z,2.77
2019-02-05T23:15:47.458Z,2.71
2019-02-05T23:18:16.471Z,2.65
2019-02-05T23:20:45.486Z,2.59
2019-02-05T23:23:14.544Z,2.53
2019-02-05T23:25:43.531Z,2.45
2019-02-05T23:28:12.549Z,2.41
2019-02-05T23:30:41.571Z,2.35
2019-02-05T23:33:10.948Z,2.29
2019-02-05T23:35:39.979Z,2.23
2019-02-05T23:38:08.965Z,2.18
2019-02-05T23:40:37.944Z,2.14
2019-02-05T23:43:06.943Z,2.08
2019-02-05T23:45:35.949Z,2.03
2019-02-05T23:48:05.484Z,1.95
2019-02-05T23:50:34.523Z,1.90
2019-02-05T23:53:03.506Z,1.85
2019-02-05T23:55:32.544Z,1.79
2019-02-05T23:58:01.539Z,1.73
